Time;durP1;ratioP1;P1;durP2;ratioP2;P2;SDS_P1;SDS_P2;PMS_P1;PMS_P2;Temp;Humidity;BMP_temperature;BMP_pressure;BME280_temperature;BME280_humidity;BME280_pressure;Samples;Min_cycle;Max_cycle;Signal;HPM_P1;HPM_P2
2023/06/10 00:02:07;;;;;;;11.27;5.60;;;17.60;99.90;;;;;;5072491;28;20076;-71
2023/06/10 00:04:35;;;;;;;10.87;4.80;;;17.60;99.90;;;;;;5072598;28;20130;-71
2023/06/10 00:07:03;;;;;;;9.60;4.63;;;17.60;99.90;;;;;;5073367;28;20044;-71
2023/06/10 00:09:29;;;;;;;9.20;4.57;;;17.60;99.90;;;;;;5073450;28;20044;-71
2023/06/10 00:11:55;;;;;;;11.50;5.20;;;17.60;99.90;;;;;;5073035;28;20450;-71
2023/06/10 00:14:20;;;;;;;9.10;4.30;;;17.60;99.90;;;;;;5089211;28;20047;-71
2023/06/10 00:16:46;;;;;;;7.87;4.90;;;17.60;99.90;;;;;;5072256;28;20401;-71
2023/06/10 00:19:16;;;;;;;9.77;5.20;;;17.50;99.90;;;;;;5073349;28;20045;-71
2023/06/10 00:21:44;;;;;;;8.70;4.30;;;17.50;99.90;;;;;;5073048;28;20489;-71
2023/06/10 00:24:11;;;;;;;7.73;4.97;;;17.50;99.90;;;;;;5072161;28;20048;-71
2023/06/10 00:26:38;;;;;;;13.83;5.17;;;17.40;99.90;;;;;;5073484;28;20056;-71
2023/06/10 00:29:04;;;;;;;9.03;5.03;;;17.40;99.90;;;;;;5073104;28;20114;-70
2023/06/10 00:31:30;;;;;;;9.13;5.10;;;17.40;99.90;;;;;;5072702;28;20040;-70
2023/06/10 00:33:56;;;;;;;11.03;5.20;;;17.40;99.90;;;;;;5072900;28;20068;-70
2023/06/10 00:36:21;;;;;;;8.37;4.73;;;17.40;99.90;;;;;;5073490;28;20476;-70
2023/06/10 00:38:47;;;;;;;11.63;5.40;;;17.30;99.90;;;;;;5088767;28;20051;-70
2023/06/10 00:41:13;;;;;;;9.87;6.13;;;17.30;99.90;;;;;;5072898;28;20044;-70
2023/06/10 00:43:39;;;;;;;12.47;4.90;;;17.30;99.90;;;;;;5072192;28;20052;-72
2023/06/10 00:46:05;;;;;;;8.87;5.50;;;17.30;99.90;;;;;;5072910;28;20093;-70
2023/06/10 00:48:32;;;;;;;13.33;5.60;;;17.20;99.90;;;;;;5073077;28;20040;-71
2023/06/10 00:50:59;;;;;;;11.93;4.43;;;17.20;99.90;;;;;;5072736;28;20086;-70
2023/06/10 00:53:26;;;;;;;8.03;4.13;;;17.20;99.90;;;;;;5073050;28;20056;-70
2023/06/10 00:55:52;;;;;;;9.57;4.60;;;17.20;99.90;;;;;;5073166;28;20127;-71
2023/06/10 00:58:19;;;;;;;11.07;5.10;;;17.20;99.90;;;;;;5072751;28;20056;-70
2023/06/10 01:00:45;;;;;;;9.33;4.70;;;17.20;99.90;;;;;;5073304;28;20044;-70
2023/06/10 01:03:11;;;;;;;9.13;4.57;;;17.10;99.90;;;;;;5072690;28;20135;-70
2023/06/10 01:05:41;;;;;;;10.33;4.90;;;17.10;99.90;;;;;;5072907;28;20063;-70
2023/06/10 01:08:18;;;;;;;11.87;4.80;;;17.10;99.90;;;;;;5072725;28;20055;-70
2023/06/10 01:10:55;;;;;;;8.20;5.07;;;17.10;99.90;;;;;;5072982;28;20048;-71
2023/06/10 01:13:28;;;;;;;10.87;4.73;;;17.00;99.90;;;;;;5072686;28;20095;-71
2023/06/10 01:15:55;;;;;;;10.03;5.57;;;17.00;99.90;;;;;;5073031;28;20040;-70
2023/06/10 01:18:21;;;;;;;10.53;5.27;;;17.00;99.90;;;;;;5072590;28;20044;-70
2023/06/10 01:20:48;;;;;;;11.70;5.67;;;17.00;99.90;;;;;;5072535;28;20442;-71
2023/06/10 01:23:15;;;;;;;8.87;4.60;;;17.00;99.90;;;;;;5072614;28;20053;-70
2023/06/10 01:25:52;;;;;;;11.57;5.27;;;16.90;99.90;;;;;;5072755;28;20488;-70
2023/06/10 01:28:41;;;;;;;12.10;5.23;;;16.90;99.90;;;;;;5072541;28;20537;-70
2023/06/10 01:31:37;;;;;;;9.60;5.07;;;16.90;99.90;;;;;;5076096;28;20440;-70
2023/06/10 01:34:07;;;;;;;8.33;4.77;;;16.80;99.90;;;;;;5076213;28;20052;-70
2023/06/10 01:36:36;;;;;;;12.63;5.20;;;16.80;99.90;;;;;;5076108;28;20055;-70
2023/06/10 01:39:04;;;;;;;8.10;4.80;;;16.80;99.90;;;;;;5075321;28;20049;-70
2023/06/10 01:41:30;;;;;;;8.60;4.90;;;16.70;99.90;;;;;;5076377;28;20123;-70
2023/06/10 01:43:56;;;;;;;12.37;5.07;;;16.70;99.90;;;;;;5076268;28;20127;-70
2023/06/10 01:46:22;;;;;;;10.73;5.23;;;16.70;99.90;;;;;;5076093;28;20147;-70
2023/06/10 01:48:48;;;;;;;8.47;4.87;;;16.60;99.90;;;;;;5076175;28;20102;-70
2023/06/10 01:51:14;;;;;;;10.20;4.90;;;16.60;99.90;;;;;;5074755;28;20435;-70
2023/06/10 01:53:39;;;;;;;9.13;5.53;;;16.60;99.90;;;;;;5076343;28;20058;-70
2023/06/10 01:56:05;;;;;;;12.17;5.27;;;16.60;99.90;;;;;;5075006;28;20048;-70
2023/06/10 01:58:31;;;;;;;9.40;4.97;;;16.50;99.90;;;;;;5076054;28;20079;-70
2023/06/10 02:00:57;;;;;;;9.20;5.27;;;16.50;99.90;;;;;;5076019;28;20049;-70
2023/06/10 02:03:22;;;;;;;10.20;5.13;;;16.50;99.90;;;;;;5057715;28;20102;-70
2023/06/10 02:05:49;;;;;;;12.03;5.03;;;16.40;99.90;;;;;;5074893;28;20049;-70
2023/06/10 02:08:15;;;;;;;9.93;5.37;;;16.40;99.90;;;;;;5075703;28;20053;-70
2023/06/10 02:10:41;;;;;;;8.93;5.47;;;16.40;99.90;;;;;;5075736;28;20366;-70
2023/06/10 02:13:07;;;;;;;8.23;5.27;;;16.40;99.90;;;;;;5075529;28;20484;-70
2023/06/10 02:15:32;;;;;;;9.93;5.20;;;16.40;99.90;;;;;;5075769;28;20051;-70
2023/06/10 02:17:59;;;;;;;9.90;4.93;;;16.30;99.90;;;;;;5074518;28;20044;-72
2023/06/10 02:20:25;;;;;;;12.43;5.57;;;16.30;99.90;;;;;;5075533;28;20155;-70
2023/06/10 02:22:50;;;;;;;11.00;5.47;;;16.20;99.90;;;;;;5075461;28;20580;-70
2023/06/10 02:25:16;;;;;;;9.77;5.50;;;16.20;99.90;;;;;;5075379;28;20135;-70
2023/06/10 02:27:42;;;;;;;12.63;5.73;;;16.20;99.90;;;;;;5075567;28;20066;-70
2023/06/10 02:30:10;;;;;;;9.27;5.70;;;16.20;99.90;;;;;;5073833;28;20084;-70
2023/06/10 02:32:36;;;;;;;10.10;5.17;;;16.10;99.90;;;;;;5075459;28;20396;-70
2023/06/10 02:35:02;;;;;;;8.33;5.13;;;16.10;99.90;;;;;;5075477;28;20102;-70
2023/06/10 02:37:27;;;;;;;10.73;5.70;;;16.00;99.90;;;;;;5075143;28;20419;-70
2023/06/10 02:39:54;;;;;;;9.63;5.63;;;16.00;99.90;;;;;;5074358;28;20123;-70
2023/06/10 02:42:20;;;;;;;9.57;5.60;;;16.00;99.90;;;;;;5089428;28;20087;-70
2023/06/10 02:44:45;;;;;;;11.63;5.73;;;16.00;99.90;;;;;;5075226;28;20079;-70
2023/06/10 02:47:11;;;;;;;12.50;5.53;;;16.00;99.90;;;;;;5075021;28;20052;-70
2023/06/10 02:49:37;;;;;;;9.17;4.90;;;15.90;99.90;;;;;;5075043;28;20495;-70
2023/06/10 02:52:03;;;;;;;14.03;6.47;;;15.90;99.90;;;;;;5073847;28;20131;-71
2023/06/10 02:54:28;;;;;;;11.77;5.83;;;15.90;99.90;;;;;;5074863;28;20379;-71
2023/06/10 02:56:55;;;;;;;13.80;6.20;;;15.90;99.90;;;;;;5073759;28;20197;-71
2023/06/10 02:59:21;;;;;;;12.73;5.93;;;15.80;99.90;;;;;;5074738;28;20370;-71
2023/06/10 03:01:47;;;;;;;9.70;5.80;;;15.80;99.90;;;;;;5073952;28;20056;-71
2023/06/10 03:04:16;;;;;;;13.17;6.30;;;15.80;99.90;;;;;;5073672;28;20439;-71
2023/06/10 03:06:42;;;;;;;10.30;5.83;;;15.70;99.90;;;;;;5074431;28;20484;-71
2023/06/10 03:09:07;;;;;;;10.57;6.20;;;15.70;99.90;;;;;;5074679;28;20489;-71
2023/06/10 03:11:33;;;;;;;9.63;5.67;;;15.70;99.90;;;;;;5090004;28;20385;-71
2023/06/10 03:13:59;;;;;;;10.70;6.47;;;15.70;99.90;;;;;;5073624;28;20094;-71
2023/06/10 03:16:25;;;;;;;11.00;6.80;;;15.60;99.90;;;;;;5073203;28;20056;-71
2023/06/10 03:18:51;;;;;;;9.70;5.93;;;15.60;99.90;;;;;;5073232;28;20052;-71
2023/06/10 03:21:17;;;;;;;12.27;6.37;;;15.60;99.90;;;;;;5074261;28;20086;-70
2023/06/10 03:23:42;;;;;;;12.60;6.53;;;15.50;99.90;;;;;;5074434;28;20045;-71
2023/06/10 03:26:09;;;;;;;12.77;6.43;;;15.50;99.90;;;;;;5074445;28;20093;-70
2023/06/10 03:28:35;;;;;;;12.00;5.93;;;15.50;99.90;;;;;;5074115;28;20119;-72
2023/06/10 03:31:01;;;;;;;10.30;5.97;;;15.50;99.90;;;;;;5074228;28;20303;-71
2023/06/10 03:33:27;;;;;;;10.30;5.70;;;15.50;99.90;;;;;;5074033;28;20294;-70
2023/06/10 03:35:53;;;;;;;11.20;5.77;;;15.40;99.90;;;;;;5074334;28;20076;-71
2023/06/10 03:38:19;;;;;;;11.87;5.90;;;15.40;99.90;;;;;;5072771;28;20083;-70
2023/06/10 03:40:44;;;;;;;11.77;5.57;;;15.40;99.90;;;;;;5072937;28;20045;-71
2023/06/10 03:43:10;;;;;;;8.47;4.83;;;15.40;99.90;;;;;;5074021;28;20051;-70
2023/06/10 03:45:36;;;;;;;9.90;5.47;;;15.40;99.90;;;;;;5073827;28;20048;-71
2023/06/10 03:48:03;;;;;;;9.70;5.03;;;15.40;99.90;;;;;;5074062;28;20044;-71
2023/06/10 03:50:29;;;;;;;9.90;6.33;;;15.40;99.90;;;;;;5073588;28;20302;-70
2023/06/10 03:52:55;;;;;;;11.73;5.40;;;15.30;99.90;;;;;;5073390;28;20279;-70
2023/06/10 03:55:21;;;;;;;10.77;5.67;;;15.30;99.90;;;;;;5073557;28;20041;-71
2023/06/10 03:57:48;;;;;;;10.47;5.80;;;15.30;99.90;;;;;;5089772;28;20395;-71
2023/06/10 04:00:15;;;;;;;8.27;5.07;;;15.30;99.90;;;;;;5073673;28;20374;-71
2023/06/10 04:02:45;;;;;;;9.87;5.70;;;15.30;99.90;;;;;;5073489;28;20279;-71
2023/06/10 04:05:18;;;;;;;9.47;4.93;;;15.30;99.90;;;;;;5073547;28;20275;-72
2023/06/10 04:07:44;;;;;;;8.73;5.30;;;15.30;99.90;;;;;;5073873;28;20333;-71
2023/06/10 04:10:13;;;;;;;10.33;5.00;;;15.30;99.90;;;;;;5073443;28;20295;-71
2023/06/10 04:12:39;;;;;;;11.20;5.70;;;15.30;99.90;;;;;;5073396;28;20332;-71
2023/06/10 04:15:06;;;;;;;9.27;5.23;;;15.30;99.90;;;;;;5073597;28;20278;-71
2023/06/10 04:17:32;;;;;;;10.70;5.10;;;15.30;99.90;;;;;;5073322;28;20283;-71
2023/06/10 04:19:58;;;;;;;9.17;4.83;;;15.40;99.90;;;;;;5073327;28;20287;-71
2023/06/10 04:22:24;;;;;;;16.50;5.20;;;15.40;99.90;;;;;;5073223;28;20047;-71
2023/06/10 04:24:50;;;;;;;10.50;4.87;;;15.40;99.90;;;;;;5072218;28;20099;-71
2023/06/10 04:27:16;;;;;;;10.07;4.73;;;15.50;99.90;;;;;;5055490;28;20802;-71
2023/06/10 04:29:41;;;;;;;10.03;4.57;;;15.50;99.90;;;;;;5073085;28;20085;-71
2023/06/10 04:32:07;;;;;;;10.13;5.07;;;15.40;99.90;;;;;;5073277;28;20555;-71
2023/06/10 04:34:40;;;;;;;9.73;5.00;;;15.40;99.90;;;;;;5088323;28;20052;-70
2023/06/10 04:37:06;;;;;;;7.70;4.97;;;15.50;99.90;;;;;;5089117;28;20181;-71
2023/06/10 04:39:32;;;;;;;9.40;5.13;;;15.50;99.90;;;;;;5073047;28;20279;-71
2023/06/10 04:41:57;;;;;;;10.50;4.90;;;15.60;99.90;;;;;;5073158;28;20279;-71
2023/06/10 04:44:23;;;;;;;13.13;4.97;;;15.70;99.90;;;;;;5071807;28;20141;-71
2023/06/10 04:46:49;;;;;;;10.97;5.17;;;15.70;99.90;;;;;;5073096;28;20496;-71
2023/06/10 04:49:15;;;;;;;13.00;5.97;;;15.80;99.90;;;;;;5073166;28;20045;-71
2023/06/10 04:51:41;;;;;;;10.17;4.90;;;15.90;99.90;;;;;;5072113;28;20524;-71
2023/06/10 04:54:06;;;;;;;12.23;5.80;;;16.00;99.90;;;;;;5072118;28;20044;-71
2023/06/10 04:56:32;;;;;;;10.37;5.60;;;16.00;99.90;;;;;;5072858;28;20049;-71
2023/06/10 04:58:59;;;;;;;13.23;5.17;;;16.10;99.90;;;;;;5072958;28;20118;-71
2023/06/10 05:01:25;;;;;;;12.50;5.47;;;16.10;99.90;;;;;;5072710;28;20127;-71
2023/06/10 05:03:51;;;;;;;13.67;5.47;;;16.20;99.90;;;;;;5073194;28;20365;-71
2023/06/10 05:06:16;;;;;;;9.33;5.73;;;16.30;99.90;;;;;;5076074;28;20374;-71
2023/06/10 05:08:42;;;;;;;13.37;5.53;;;16.40;99.90;;;;;;5076900;28;20051;-72
2023/06/10 05:11:08;;;;;;;12.93;6.90;;;16.50;99.90;;;;;;5059094;28;20400;-71
2023/06/10 05:13:34;;;;;;;10.40;6.30;;;16.60;99.90;;;;;;5076756;28;20401;-71
2023/06/10 05:16:00;;;;;;;10.97;5.73;;;16.60;99.90;;;;;;5077081;28;20275;-71
2023/06/10 05:18:26;;;;;;;13.63;5.47;;;16.70;99.90;;;;;;5077041;28;20102;-72
2023/06/10 05:20:53;;;;;;;10.30;5.53;;;16.70;99.90;;;;;;5076840;28;20049;-71
2023/06/10 05:23:20;;;;;;;10.03;5.43;;;16.80;99.90;;;;;;5076814;28;20055;-72
2023/06/10 05:25:45;;;;;;;10.30;5.47;;;17.00;99.90;;;;;;5076565;28;20110;-71
2023/06/10 05:28:11;;;;;;;10.37;6.03;;;17.00;99.90;;;;;;5076904;28;20048;-71
2023/06/10 05:30:37;;;;;;;10.60;6.20;;;17.10;99.90;;;;;;5076381;28;20045;-71
2023/06/10 05:33:04;;;;;;;10.53;4.70;;;17.30;99.90;;;;;;5076588;28;20048;-71
2023/06/10 05:35:30;;;;;;;10.80;5.73;;;17.40;99.90;;;;;;5076344;28;20295;-71
2023/06/10 05:37:56;;;;;;;10.13;5.73;;;17.50;99.90;;;;;;5076471;28;20059;-71
2023/06/10 05:40:22;;;;;;;9.73;5.13;;;17.60;99.90;;;;;;5076519;28;20037;-72
2023/06/10 05:42:47;;;;;;;9.70;4.77;;;17.70;99.90;;;;;;5076209;28;20051;-70
2023/06/10 05:45:13;;;;;;;9.57;5.10;;;18.00;99.90;;;;;;5076550;28;20037;-72
2023/06/10 05:47:40;;;;;;;8.80;4.67;;;18.20;99.90;;;;;;5076126;28;20492;-71
2023/06/10 05:50:07;;;;;;;10.80;4.80;;;19.20;99.90;;;;;;5076163;28;20511;-71
2023/06/10 05:52:36;;;;;;;9.50;5.10;;;20.70;99.90;;;;;;5076117;28;20040;-71
2023/06/10 05:55:05;;;;;;;10.10;5.00;;;22.20;99.90;;;;;;5076148;28;20392;-71
2023/06/10 05:57:31;;;;;;;9.40;4.57;;;23.20;99.90;;;;;;5075948;28;20044;-71
2023/06/10 05:59:56;;;;;;;10.87;4.70;;;23.70;99.90;;;;;;5074999;28;20094;-71
2023/06/10 06:02:22;;;;;;;9.47;5.00;;;24.40;99.90;;;;;;5075966;28;20047;-71
2023/06/10 06:04:48;;;;;;;8.70;4.43;;;25.10;97.90;;;;;;5074595;28;20049;-71
2023/06/10 06:07:14;;;;;;;9.93;4.60;;;25.90;91.40;;;;;;5075979;28;20434;-72
2023/06/10 06:09:40;;;;;;;10.17;4.47;;;25.90;84.10;;;;;;5075661;28;20051;-71
2023/06/10 06:12:07;;;;;;;9.10;5.33;;;26.10;79.40;;;;;;5076386;28;20507;-71
2023/06/10 06:14:36;;;;;;;9.10;4.53;;;25.90;74.80;;;;;;5075390;28;20492;-72
2023/06/10 06:17:02;;;;;;;8.97;4.70;;;26.20;73.80;;;;;;5075591;28;20517;-72
2023/06/10 06:19:28;;;;;;;9.07;4.43;;;26.40;71.70;;;;;;5075805;28;20092;-72
2023/06/10 06:21:53;;;;;;;7.13;4.50;;;26.40;69.20;;;;;;5073902;28;20302;-73
2023/06/10 06:24:19;;;;;;;11.33;4.73;;;26.60;66.60;;;;;;5075830;28;20048;-72
2023/06/10 06:26:45;;;;;;;8.53;4.30;;;26.80;63.30;;;;;;5075404;28;20102;-72
2023/06/10 06:29:11;;;;;;;10.63;4.80;;;27.70;64.30;;;;;;5075495;28;20044;-72
2023/06/10 06:31:36;;;;;;;9.53;4.80;;;28.60;61.20;;;;;;5075218;28;20063;-71
2023/06/10 06:34:02;;;;;;;7.13;4.30;;;29.20;58.10;;;;;;5074247;28;20435;-72
2023/06/10 06:36:28;;;;;;;8.27;5.00;;;29.20;56.00;;;;;;5074041;28;20131;-72
2023/06/10 06:38:53;;;;;;;9.50;4.70;;;29.10;53.70;;;;;;5075206;28;20056;-72
2023/06/10 06:41:19;;;;;;;8.97;4.57;;;28.80;53.60;;;;;;5074347;28;20515;-72
2023/06/10 06:43:45;;;;;;;8.43;4.30;;;28.80;54.30;;;;;;5075006;28;20491;-72
2023/06/10 06:46:10;;;;;;;8.32;4.07;;;28.80;53.60;;;;;;5075209;28;20044;-72
2023/06/10 06:48:36;;;;;;;8.82;3.95;;;29.40;53.50;;;;;;5075258;28;20048;-72
2023/06/10 06:51:02;;;;;;;8.80;4.30;;;29.90;52.70;;;;;;5075424;28;20545;-72
2023/06/10 06:53:28;;;;;;;8.90;4.25;;;30.50;51.50;;;;;;5075099;28;20096;-72
2023/06/10 06:55:53;;;;;;;7.13;4.07;;;30.80;49.00;;;;;;5074927;28;20044;-72
2023/06/10 06:58:19;;;;;;;7.82;4.32;;;30.60;48.80;;;;;;5075025;28;20047;-72
2023/06/10 07:00:45;;;;;;;11.85;4.93;;;30.80;48.90;;;;;;5074792;28;20396;-72
2023/06/10 07:03:11;;;;;;;8.05;4.10;;;30.70;48.30;;;;;;5074900;28;20048;-72
2023/06/10 07:05:37;;;;;;;9.10;4.47;;;31.20;48.20;;;;;;5073686;28;20080;-72
2023/06/10 07:08:03;;;;;;;8.45;3.97;;;31.00;47.00;;;;;;5074606;28;20048;-72
2023/06/10 07:10:29;;;;;;;7.55;4.40;;;30.70;47.50;;;;;;5073702;28;20106;-72
2023/06/10 07:12:55;;;;;;;10.18;4.30;;;30.90;47.60;;;;;;5073480;28;20052;-72
2023/06/10 07:15:20;;;;;;;7.32;4.20;;;31.20;47.20;;;;;;5073417;28;20040;-72
2023/06/10 07:17:46;;;;;;;8.02;4.40;;;31.30;46.80;;;;;;5074119;28;20048;-72
2023/06/10 07:20:13;;;;;;;7.30;4.28;;;31.60;46.20;;;;;;5074576;28;20146;-72
2023/06/10 07:22:41;;;;;;;8.88;4.30;;;31.40;45.70;;;;;;5074503;28;20084;-72
2023/06/10 07:25:07;;;;;;;6.95;4.43;;;31.30;46.40;;;;;;5073503;28;20044;-72
2023/06/10 07:27:33;;;;;;;7.45;4.47;;;31.20;46.80;;;;;;5073648;28;20048;-73
2023/06/10 07:30:00;;;;;;;8.00;4.43;;;31.60;45.90;;;;;;5089722;28;20048;-72
2023/06/10 07:32:26;;;;;;;8.50;4.15;;;32.00;45.60;;;;;;5073404;28;20052;-72
2023/06/10 07:34:52;;;;;;;10.18;4.10;;;32.30;44.90;;;;;;5074025;28;20133;-72
2023/06/10 07:37:19;;;;;;;8.13;4.13;;;32.00;44.60;;;;;;5074395;28;20052;-72
2023/06/10 07:39:45;;;;;;;7.50;4.05;;;32.30;44.90;;;;;;5073082;28;20109;-72
2023/06/10 07:42:11;;;;;;;8.15;4.70;;;31.90;44.10;;;;;;5074183;28;20044;-72
2023/06/10 07:44:36;;;;;;;7.82;5.00;;;31.80;44.20;;;;;;5074132;28;20048;-72
2023/06/10 07:47:02;;;;;;;9.52;4.22;;;31.70;45.00;;;;;;5072926;28;20493;-72
2023/06/10 07:49:28;;;;;;;7.68;4.07;;;31.80;44.70;;;;;;5073046;28;20063;-72
2023/06/10 07:51:55;;;;;;;8.35;4.38;;;32.20;44.50;;;;;;5073644;28;20044;-70
2023/06/10 07:54:21;;;;;;;9.27;4.80;;;32.20;44.00;;;;;;5074156;28;20052;-70
2023/06/10 07:56:47;;;;;;;7.95;4.50;;;32.40;43.00;;;;;;5072713;28;20051;-70
2023/06/10 07:59:14;;;;;;;6.85;4.00;;;32.00;43.30;;;;;;5073825;28;20131;-70
2023/06/10 08:01:40;;;;;;;6.82;3.55;;;31.90;43.60;;;;;;5073782;28;20044;-70
2023/06/10 08:04:06;;;;;;;6.88;4.38;;;31.90;44.40;;;;;;5073561;28;20060;-70
2023/06/10 08:06:32;;;;;;;8.75;4.40;;;32.50;43.20;;;;;;5072791;28;20091;-70
2023/06/10 08:08:58;;;;;;;6.63;4.07;;;32.60;42.50;;;;;;5071956;28;20079;-70
2023/06/10 08:11:23;;;;;;;8.63;4.70;;;32.80;42.10;;;;;;5072319;28;20037;-71
2023/06/10 08:13:49;;;;;;;7.68;3.58;;;32.90;41.80;;;;;;5073354;28;20051;-70
2023/06/10 08:16:16;;;;;;;8.30;3.85;;;32.90;42.10;;;;;;5073558;28;20052;-70
2023/06/10 08:18:42;;;;;;;6.93;4.45;;;32.70;42.10;;;;;;5073408;28;20132;-70
2023/06/10 08:21:08;;;;;;;8.73;4.22;;;32.60;40.70;;;;;;5071963;28;20084;-70
2023/06/10 08:23:34;;;;;;;7.03;3.97;;;32.50;40.50;;;;;;5072365;28;20044;-70
2023/06/10 08:25:59;;;;;;;6.20;3.90;;;32.20;40.70;;;;;;5072029;28;20476;-70
2023/06/10 08:28:25;;;;;;;8.18;4.28;;;32.30;41.20;;;;;;5072141;28;20052;-70
2023/06/10 08:30:51;;;;;;;7.55;4.20;;;32.40;41.10;;;;;;5055519;28;20127;-70
2023/06/10 08:33:16;;;;;;;7.13;4.13;;;32.60;41.30;;;;;;5039077;28;20045;-70
2023/06/10 08:35:42;;;;;;;11.48;4.18;;;32.60;40.90;;;;;;5073411;28;20048;-70
2023/06/10 08:38:08;;;;;;;8.57;3.65;;;32.50;41.20;;;;;;5072979;28;20056;-70
2023/06/10 08:40:34;;;;;;;5.72;3.60;;;32.20;40.70;;;;;;5073199;28;20040;-72
2023/06/10 08:43:07;;;;;;;8.45;3.78;;;32.10;41.10;;;;;;5073031;28;20048;-70
2023/06/10 08:45:36;;;;;;;9.50;3.70;;;31.90;41.10;;;;;;5089009;28;20091;-72
2023/06/10 08:48:08;;;;;;;8.93;4.20;;;31.50;40.90;;;;;;5071910;28;20100;-73
2023/06/10 08:50:38;;;;;;;7.40;4.20;;;31.00;40.00;;;;;;5072062;28;20045;-72
2023/06/10 08:53:06;;;;;;;7.15;3.95;;;30.10;41.00;;;;;;5072935;28;20377;-72
2023/06/10 08:55:36;;;;;;;8.57;3.75;;;29.40;41.10;;;;;;5072965;28;20046;-72
2023/06/10 08:58:02;;;;;;;5.57;3.55;;;28.70;42.20;;;;;;5071760;28;20043;-72
2023/06/10 09:00:29;;;;;;;7.50;3.70;;;27.80;42.80;;;;;;5072835;28;20051;-72
2023/06/10 09:02:57;;;;;;;5.40;3.63;;;27.60;43.40;;;;;;5072647;28;20045;-72
2023/06/10 09:05:23;;;;;;;5.82;4.32;;;27.40;43.40;;;;;;5072822;28;20048;-72
2023/06/10 09:07:51;;;;;;;8.93;4.50;;;26.90;44.20;;;;;;5072821;28;20052;-72
2023/06/10 09:10:17;;;;;;;8.77;3.90;;;26.50;45.50;;;;;;5072528;28;20047;-71
2023/06/10 09:12:43;;;;;;;8.35;4.38;;;26.20;45.80;;;;;;5072751;28;20127;-72
2023/06/10 09:15:11;;;;;;;6.63;3.60;;;26.10;47.00;;;;;;5071298;28;20182;-71
2023/06/10 09:17:37;;;;;;;6.25;3.78;;;26.00;46.30;;;;;;5071725;28;20491;-72
2023/06/10 09:20:03;;;;;;;7.38;3.50;;;26.10;46.50;;;;;;5071374;28;20045;-71
2023/06/10 09:22:29;;;;;;;8.82;3.78;;;26.10;46.30;;;;;;5072629;28;20052;-72
2023/06/10 09:25:09;;;;;;;7.72;4.10;;;25.90;46.40;;;;;;5072632;28;20053;-71
2023/06/10 09:27:53;;;;;;;5.88;3.30;;;25.70;46.10;;;;;;5072718;28;20076;-71
2023/06/10 09:30:28;;;;;;;6.10;4.07;;;25.50;46.80;;;;;;5072432;28;20044;-71
2023/06/10 09:32:58;;;;;;;9.80;3.97;;;25.50;47.60;;;;;;5072624;28;20091;-71
2023/06/10 09:35:29;;;;;;;9.20;4.10;;;25.50;47.80;;;;;;5072345;28;20063;-71
2023/06/10 09:38:00;;;;;;;10.40;4.03;;;25.60;47.90;;;;;;5072633;28;20064;-71
2023/06/10 09:40:27;;;;;;;6.27;3.33;;;25.60;48.30;;;;;;5072716;28;20113;-71
2023/06/10 09:42:55;;;;;;;8.67;3.90;;;25.70;48.30;;;;;;5072549;28;20044;-71
2023/06/10 09:45:21;;;;;;;7.57;3.53;;;25.70;48.40;;;;;;5072245;28;20053;-72
2023/06/10 09:47:51;;;;;;;5.27;2.70;;;25.50;46.70;;;;;;5072523;28;20053;-71
2023/06/10 09:50:17;;;;;;;5.60;3.10;;;25.30;45.90;;;;;;5072896;28;20472;-72
2023/06/10 09:52:45;;;;;;;7.97;3.80;;;25.20;46.20;;;;;;5076278;28;20127;-73
2023/06/10 09:55:11;;;;;;;7.43;3.70;;;25.20;46.00;;;;;;5075976;28;20076;-71
2023/06/10 09:57:36;;;;;;;8.70;3.63;;;25.20;46.30;;;;;;5075232;28;20091;-71
2023/06/10 10:00:08;;;;;;;8.43;3.33;;;25.10;45.60;;;;;;5074933;28;20379;-71
2023/06/10 10:02:48;;;;;;;6.13;3.30;;;25.10;45.70;;;;;;5076312;28;20048;-71
2023/06/10 10:05:15;;;;;;;6.30;3.03;;;25.10;46.50;;;;;;5075897;28;20054;-72
2023/06/10 10:07:42;;;;;;;6.33;3.40;;;25.10;44.70;;;;;;5074996;28;20498;-71
2023/06/10 10:10:09;;;;;;;6.50;2.80;;;25.10;45.20;;;;;;5074473;28;20464;-71
2023/06/10 10:12:37;;;;;;;7.60;2.90;;;25.20;46.00;;;;;;5075559;28;20480;-71
2023/06/10 10:15:05;;;;;;;6.43;3.20;;;25.30;45.60;;;;;;5075580;28;20040;-71
2023/06/10 10:17:33;;;;;;;5.23;2.80;;;25.30;44.10;;;;;;5075707;28;20048;-71
2023/06/10 10:20:04;;;;;;;6.67;2.90;;;25.30;44.10;;;;;;5091428;28;20041;-71
2023/06/10 10:22:36;;;;;;;7.23;2.97;;;25.30;45.20;;;;;;5075732;28;20060;-71
2023/06/10 10:25:05;;;;;;;6.87;3.30;;;25.40;46.30;;;;;;5075357;28;20469;-71
2023/06/10 10:27:38;;;;;;;7.73;3.67;;;25.40;47.40;;;;;;5075552;28;20182;-71
2023/06/10 10:30:08;;;;;;;7.53;3.27;;;25.40;47.70;;;;;;5075390;28;20055;-71
2023/06/10 10:33:18;;;;;;;8.50;3.07;;;25.20;47.20;;;;;;5075872;28;20135;-71
2023/06/10 10:35:46;;;;;;;6.53;3.17;;;25.30;46.30;;;;;;5073123;28;20056;-72
2023/06/10 10:38:12;;;;;;;6.60;2.80;;;25.30;45.30;;;;;;5075202;28;20082;-71
2023/06/10 10:40:39;;;;;;;4.83;2.90;;;25.30;44.60;;;;;;5074444;28;20116;-71
2023/06/10 10:43:05;;;;;;;5.43;2.80;;;25.20;44.10;;;;;;5075210;28;20127;-71
2023/06/10 10:45:33;;;;;;;5.50;3.30;;;25.30;43.80;;;;;;5075009;28;20492;-72
2023/06/10 10:48:11;;;;;;;5.00;2.90;;;25.30;43.60;;;;;;5075258;28;20481;-73
2023/06/10 10:50:37;;;;;;;5.63;2.97;;;25.30;44.20;;;;;;5075240;28;20048;-71
2023/06/10 10:53:05;;;;;;;6.20;3.00;;;25.10;44.70;;;;;;5075154;28;20485;-71
2023/06/10 10:55:31;;;;;;;7.73;3.73;;;25.20;45.80;;;;;;5073836;28;20048;-71
2023/06/10 10:58:06;;;;;;;5.87;2.90;;;25.20;47.40;;;;;;5075079;28;20055;-71
2023/06/10 11:00:44;;;;;;;7.50;2.80;;;25.20;48.00;;;;;;5075059;28;20123;-71
2023/06/10 11:03:16;;;;;;;6.47;3.17;;;25.20;47.70;;;;;;5073844;28;20049;-71
2023/06/10 11:05:49;;;;;;;5.70;3.13;;;25.20;47.20;;;;;;5075012;28;20045;-71
2023/06/10 11:08:36;;;;;;;5.13;2.80;;;25.20;47.20;;;;;;5074829;28;20144;-71
2023/06/10 11:11:21;;;;;;;7.27;3.30;;;25.20;48.10;;;;;;5066738;28;20056;-71
2023/06/10 11:14:08;;;;;;;8.13;3.67;;;25.20;49.20;;;;;;5074113;28;20135;-71
2023/06/10 11:16:40;;;;;;;6.57;2.87;;;25.20;48.20;;;;;;5074739;28;20041;-71
2023/06/10 11:19:05;;;;;;;6.97;3.00;;;25.20;47.10;;;;;;5074686;28;20048;-72
2023/06/10 11:21:32;;;;;;;8.03;3.13;;;25.30;47.40;;;;;;5074430;28;20067;-71
2023/06/10 11:24:11;;;;;;;7.97;3.03;;;25.30;48.10;;;;;;5074570;28;20059;-72
2023/06/10 11:26:44;;;;;;;9.40;3.00;;;25.40;48.90;;;;;;5074687;28;20098;-71
2023/06/10 11:29:10;;;;;;;5.77;3.30;;;25.40;49.20;;;;;;5073440;28;20079;-71
2023/06/10 11:31:41;;;;;;;5.47;3.20;;;25.50;48.80;;;;;;5074188;28;20562;-72
2023/06/10 11:34:08;;;;;;;5.77;3.30;;;25.40;48.60;;;;;;5074273;28;20047;-71
2023/06/10 11:36:40;;;;;;;5.33;3.03;;;25.40;48.50;;;;;;5074336;28;20056;-71
2023/06/10 11:39:06;;;;;;;5.80;2.80;;;25.40;48.10;;;;;;5074461;28;20499;-72
2023/06/10 11:41:34;;;;;;;4.53;3.10;;;25.30;47.90;;;;;;5073954;28;20499;-71
2023/06/10 11:44:07;;;;;;;6.37;3.47;;;25.30;48.30;;;;;;5073102;28;20149;-71
2023/06/10 11:46:33;;;;;;;5.90;3.00;;;25.30;48.50;;;;;;5074188;28;20143;-71
2023/06/10 11:49:00;;;;;;;5.63;2.73;;;25.30;48.50;;;;;;5073983;28;20051;-71
2023/06/10 11:51:28;;;;;;;6.87;3.60;;;25.30;46.70;;;;;;5073663;28;20040;-71
2023/06/10 11:53:54;;;;;;;6.40;3.00;;;25.30;46.40;;;;;;5073930;28;20048;-72
2023/06/10 11:56:28;;;;;;;4.80;2.40;;;25.30;45.40;;;;;;5072459;28;20044;-71
2023/06/10 11:58:57;;;;;;;5.57;2.95;;;25.30;44.00;;;;;;5074146;28;20051;-72
2023/06/10 12:01:25;;;;;;;6.33;3.10;;;25.30;45.20;;;;;;5073519;28;20094;-71
2023/06/10 12:03:58;;;;;;;6.07;3.20;;;25.30;46.10;;;;;;5073711;28;20505;-71
2023/06/10 12:06:24;;;;;;;5.53;3.23;;;25.40;47.50;;;;;;5073489;28;20101;-71
2023/06/10 12:08:49;;;;;;;6.70;3.03;;;25.50;47.00;;;;;;5073536;28;20040;-71
2023/06/10 12:11:15;;;;;;;8.97;3.27;;;25.60;46.10;;;;;;5073328;28;20132;-71
2023/06/10 12:13:49;;;;;;;6.93;3.30;;;25.60;46.90;;;;;;5073293;28;20047;-71
2023/06/10 12:16:16;;;;;;;5.13;3.07;;;25.60;47.50;;;;;;5089261;28;20051;-71
2023/06/10 12:18:45;;;;;;;6.60;3.13;;;25.60;47.60;;;;;;5073466;28;20400;-71
2023/06/10 12:21:23;;;;;;;6.10;3.20;;;25.50;47.30;;;;;;5072198;28;20123;-71
2023/06/10 12:24:02;;;;;;;5.23;2.90;;;25.50;46.90;;;;;;5073109;28;20048;-71
2023/06/10 12:26:55;;;;;;;7.90;3.40;;;25.50;46.90;;;;;;5073170;28;20049;-71
2023/06/10 12:29:24;;;;;;;6.23;3.27;;;25.50;46.00;;;;;;5071271;28;20051;-71
2023/06/10 12:32:05;;;;;;;7.10;3.67;;;25.50;46.60;;;;;;5072096;28;20556;-71
2023/06/10 12:34:39;;;;;;;6.47;3.20;;;25.50;46.40;;;;;;5072876;28;20055;-71
2023/06/10 12:37:13;;;;;;;13.18;3.22;;;25.60;46.80;;;;;;5072195;28;20558;-71
2023/06/10 12:39:39;;;;;;;8.30;3.60;;;25.50;46.10;;;;;;5071942;28;20438;-71
2023/06/10 12:42:08;;;;;;;6.90;3.20;;;25.50;46.50;;;;;;5073171;28;20047;-71
2023/06/10 12:44:38;;;;;;;7.23;3.33;;;25.60;47.10;;;;;;5072987;28;20075;-71
2023/06/10 12:47:12;;;;;;;8.27;2.90;;;25.60;46.90;;;;;;5073146;28;20048;-72